Livingston, Illinois
Current Conditions -  °F | °C
As of 4:35 PM on Monday 20 Oct 2014 (Local Time) from K3LF Reporting Station
Clear Clear  
Wind Chill: 20°   Ceiling: Unl
Heat Index: 20°   Visibility: 10mi
Dew Point:   Wind: 16mph
Humidity: 38%   Direction: 320°NW
Pressure: 29.94"   Gusts: 22mph
Location:  38.97°N, 89.76°W
Report Text: K3LF 202135Z AUTO 32014G19KT 10SM CLR 20/05 A2994 RMK AO2 T02000051
Loading
Personal Weather Stations






























Interactive Weather Map
Tropical Storm Tracking
New forecast layout! Learn more

10-Day Weather Forecast

Advertisements
Track Severe Weather on mobile